[Jeden Dienstag | EDDT] Berlin Tuesday

Zu Eventkalender hinzugefügt: 53 Daten

Andreas Stender

1413584
RG Berlin - Event
Es ist wieder Dienstag, es ist also wieder Online-Day in Berlin. Von mindestens 20-23 lcl ist Berlin-Tegel von den Berliner Lotsen besetzt und bieten Euch einen Abend gewohnt professionellen ATC-Service.

Das Wetter verspricht auch Spannung:

TAF: EDDT 171100Z 1712/1812 27015G25KT 9999 SCT030 TEMPO 1712/1719 27020G35KT 3000 SHRA BKN015CB BECMG 1722/1801 28012KT BECMG 1807/1810 29015G25KT
Egal ob IFR oder VFR, wir freuen uns auf einen schönen Abend mit Euch.
 

Pascal Seeler

1271398
RG Berlin - Event
RG Berlin - Mentor
Ein bunter Mix aus Trainees und gestandenen Lotsen steht ab 20 Uhr bereit, euch in der Hauptstadt zu empfangen. Ich habe gehört, es gibt noch einige Marathonis mit schmerzenden Gelenken, die heute Abend in ihre Heimat zurückgebracht werden müssen. ;)

Wir freuen uns auf euch!
 
Zuletzt bearbeitet:

Andreas Stender

1413584
RG Berlin - Event
Der neue Voice-Codec ist da! Wie gut, dass heute Dienstag ist und die Berliner Lotsen den Flughafen Tegel voll gestaffed haben. Vom Delivery bis zum Center könnt ihr heute Abend von 20-23lcl volle Besetzung mit bestem Service und nun auch in herausragender Voice-Qualität genießen.

Und auch das Wetter gibt noch mal alles:

Code:
TAF: EDDT 150500Z 1506/1606 11005KT CAVOK BECMG 1522/1602 VRB02KT 4000 BR PROB40 TEMPO 1602/1606 0500 FG BKN001
Wir freuen uns auf einen verkehrsreichen Abend...
 

Andreas Stender

1413584
RG Berlin - Event
Und wöchentlich grüßt das Tegel-Tier.

Es ist wieder Dienstag, in gut 1 1/2 Stunden geht es wieder los. Die Berliner Lotsen freuen sich, Euch in Berlin-Tegel für mindestens 4 Stunden vollen ATC-Service zu bieten. Schwingt Euch ins Dünn- oder Dickblech und verbringt einen tollen Abend mit uns...
 

Andreas Stender

1413584
RG Berlin - Event
Heute ist in Berlin ein besonderer Dienstag. Denn heute haben wir nicht nur unseren allwöchentlichen Online-Day sondern zeitgleich auch noch ein TWR-CPT ab 19z. Wir laden daher alle Piloten ein heute unser Gast zu sein. Helft unserem Prüfling Tamer mit IFR und VFR-Verkehr, damit er seinen Prüfern beweisen kann, dass er es verdient hat ein neues Rating zu erhalten.

Das Wetter wird jetzt nicht ganz so toll, lässt aber noch schöne Anflüge zu:

Code:
TAF: EDDT 031100Z 0312/0412 23007KT 6000 SCT005 BECMG 0312/0315 BKN005 TEMPO 0313/0324 2500 BR BKN003 BECMG 0321/0324 BKN015 TEMPO 0400/0409 4000 BR BKN008
Wir freuen uns auf Eure Unterstützung und sagen schonmal Danke...
 
Oben